Sibay, Russia
Current Conditions -  °F | °C
As of 10:30 AM on Saturday 20 Dec 2014 (Local Time) from USCM Reporting Station
Broken Clouds Broken Clouds  
Wind Chill: 12°   Ceiling: 3600
Heat Index: 23°   Visibility: 6mi
Dew Point: 19°   Wind: 11mph
Humidity: 86%   Direction: 220°SW
Pressure: 29.94"   Gusts: NA
Location:  52.7°N, 58.65°E
Report Text: USCM 200530Z 22005MPS 9999 BKN036 M05/M07 Q1014 NOSIG 19420260RMK QFE723
Loading
Personal Weather Stations






























Interactive Weather Map New forecast layout! Learn more

10-Day Weather Forecast

Advertisements
Track Severe Weather on mobile